Time;durP1;ratioP1;P1;durP2;ratioP2;P2;SDS_P1;SDS_P2;PMS_P1;PMS_P2;Temp;Humidity;BMP_temperature;BMP_pressure;BME280_temperature;BME280_humidity;BME280_pressure;Samples;Min_cycle;Max_cycle;Signal;HPM_P1;HPM_P2
2022/08/21 00:01:22;;;;;;;8.95;2.75;;;;;;;17.79;100.00;101637.41;5053509;28;20031;-73
2022/08/21 00:03:47;;;;;;;9.93;3.08;;;;;;;17.78;100.00;101638.28;5055286;28;20167;-72
2022/08/21 00:06:13;;;;;;;6.93;2.35;;;;;;;17.73;100.00;101633.88;5050406;28;20065;-73
2022/08/21 00:08:39;;;;;;;6.32;2.13;;;;;;;17.72;100.00;101637.44;5052726;28;20025;-74
2022/08/21 00:11:05;;;;;;;15.32;2.95;;;;;;;17.70;100.00;101634.75;5049433;28;20385;-73
2022/08/21 00:13:30;;;;;;;10.25;2.72;;;;;;;17.68;100.00;101639.22;5051899;28;20024;-72
2022/08/21 00:15:56;;;;;;;7.57;2.60;;;;;;;17.70;100.00;101640.06;5074189;28;20525;-72
2022/08/21 00:18:22;;;;;;;11.88;2.75;;;;;;;17.65;100.00;101636.56;5046042;28;20685;-74
2022/08/21 00:20:47;;;;;;;9.35;2.65;;;;;;;17.64;100.00;101629.44;5037372;28;20107;-73
2022/08/21 00:23:13;;;;;;;6.93;2.40;;;;;;;17.58;100.00;101634.75;5042160;28;20040;-73
2022/08/21 00:25:40;;;;;;;11.35;2.42;;;;;;;17.54;100.00;101625.91;5060483;28;20047;-73
2022/08/21 00:28:06;;;;;;;7.63;2.60;;;;;;;17.50;100.00;101633.00;5051146;28;20024;-73
2022/08/21 00:30:32;;;;;;;8.65;2.22;;;;;;;17.50;100.00;101638.31;5049032;28;20025;-73
2022/08/21 00:32:59;;;;;;;5.85;2.28;;;;;;;17.49;100.00;101628.53;5041852;28;20029;-73
2022/08/21 00:35:28;;;;;;;8.65;2.38;;;;;;;17.50;100.00;101622.34;5047532;28;20036;-73
2022/08/21 00:37:53;;;;;;;9.77;3.38;;;;;;;17.48;100.00;101631.22;5036934;28;20032;-73
2022/08/21 00:40:24;;;;;;;10.60;2.78;;;;;;;17.52;100.00;101625.88;5047859;28;20775;-74
2022/08/21 00:42:49;;;;;;;9.27;3.08;;;;;;;17.50;100.00;101617.03;5046139;28;20476;-74
2022/08/21 00:45:15;;;;;;;7.22;2.33;;;;;;;17.49;100.00;101620.56;5043318;28;20033;-73
2022/08/21 00:47:40;;;;;;;14.00;2.80;;;;;;;17.45;100.00;101618.78;5038375;28;20525;-74
2022/08/21 00:50:10;;;;;;;13.30;2.38;;;;;;;17.46;100.00;101623.22;5033823;28;20033;-73
2022/08/21 00:52:37;;;;;;;12.80;2.70;;;;;;;17.47;100.00;101621.44;5034286;28;20056;-73
2022/08/21 00:55:04;;;;;;;12.60;3.08;;;;;;;17.45;100.00;101621.44;5035870;28;20033;-72
2022/08/21 00:57:40;;;;;;;10.82;2.75;;;;;;;17.45;100.00;101609.94;5047517;28;20025;-75
2022/08/21 01:00:09;;;;;;;8.73;2.38;;;;;;;17.45;100.00;101618.78;5048201;28;20034;-73
2022/08/21 01:02:35;;;;;;;10.20;2.33;;;;;;;17.39;100.00;101613.47;5048695;28;20533;-73
2022/08/21 01:05:01;;;;;;;6.85;2.85;;;;;;;17.34;100.00;101610.81;5052671;28;20025;-74
2022/08/21 01:07:26;;;;;;;6.13;2.22;;;;;;;17.35;100.00;101611.72;5044349;28;20045;-73
2022/08/21 01:09:52;;;;;;;11.20;2.47;;;;;;;17.36;100.00;101608.13;5035702;28;20081;-73
2022/08/21 01:12:18;;;;;;;13.60;2.70;;;;;;;17.35;100.00;101606.38;5043800;28;20032;-73
2022/08/21 01:14:44;;;;;;;9.75;2.20;;;;;;;17.34;100.00;101604.59;5035706;28;20068;-74
2022/08/21 01:17:13;;;;;;;7.90;2.10;;;;;;;17.32;100.00;101606.38;5045493;28;20047;-74
2022/08/21 01:19:39;;;;;;;13.10;2.67;;;;;;;17.29;100.00;101603.72;5057557;28;20075;-73
2022/08/21 01:22:04;;;;;;;16.50;3.22;;;;;;;17.25;100.00;101601.94;5042477;28;20029;-73
2022/08/21 01:24:31;;;;;;;7.35;2.33;;;;;;;17.26;100.00;101603.72;5045603;28;20100;-72
2022/08/21 01:26:57;;;;;;;6.10;2.03;;;;;;;17.25;100.00;101605.47;5056621;28;20048;-72
2022/08/21 01:29:31;;;;;;;10.73;2.17;;;;;;;17.23;100.00;101609.91;5052705;28;20376;-72
2022/08/21 01:31:59;;;;;;;14.20;3.17;;;;;;;17.21;100.00;101605.47;5046864;28;20493;-73
2022/08/21 01:34:24;;;;;;;11.18;2.80;;;;;;;17.17;100.00;101605.47;5052176;28;20035;-73
2022/08/21 01:36:50;;;;;;;6.88;2.20;;;;;;;17.15;100.00;101604.56;5046419;28;20444;-73
2022/08/21 01:39:15;;;;;;;12.20;2.50;;;;;;;17.16;100.00;101605.47;5035841;28;20022;-74
2022/08/21 01:41:41;;;;;;;13.32;2.70;;;;;;;17.12;100.00;101604.56;5045888;28;20372;-73
2022/08/21 01:44:07;;;;;;;14.43;2.63;;;;;;;17.12;100.00;101604.56;5045496;28;20543;-74
2022/08/21 01:46:32;;;;;;;8.25;2.40;;;;;;;17.12;100.00;101603.66;5041648;28;20472;-72
2022/08/21 01:48:58;;;;;;;8.63;2.33;;;;;;;17.11;100.00;101605.47;5033170;28;20415;-73
2022/08/21 01:51:24;;;;;;;10.80;2.78;;;;;;;17.09;100.00;101607.25;5034181;28;20037;-72
2022/08/21 01:53:49;;;;;;;8.15;2.25;;;;;;;17.08;100.00;101597.47;5036459;28;20039;-72
2022/08/21 01:56:17;;;;;;;8.90;1.92;;;;;;;17.09;100.00;101593.03;5041633;28;20024;-73
2022/08/21 01:58:45;;;;;;;9.68;1.92;;;;;;;17.07;100.00;101587.72;5042424;28;20024;-73
2022/08/21 02:01:10;;;;;;;6.25;2.00;;;;;;;17.06;100.00;101593.91;5046331;28;20503;-73
2022/08/21 02:03:37;;;;;;;6.70;2.47;;;;;;;17.09;100.00;101583.31;5048092;28;20092;-73
2022/08/21 02:06:04;;;;;;;10.45;2.50;;;;;;;17.11;100.00;101588.63;5049570;28;20508;-74
2022/08/21 02:08:30;;;;;;;5.85;2.17;;;;;;;17.11;100.00;101580.66;5042613;28;20047;-73
2022/08/21 02:10:56;;;;;;;14.43;2.15;;;;;;;17.09;100.00;101583.31;5049803;28;20029;-73
2022/08/21 02:13:21;;;;;;;12.73;2.08;;;;;;;17.08;100.00;101578.88;5040498;28;20025;-74
2022/08/21 02:15:46;;;;;;;4.90;2.33;;;;;;;17.07;100.00;101573.56;5040791;28;20082;-73
2022/08/21 02:18:12;;;;;;;8.38;2.30;;;;;;;17.02;100.00;101573.53;5050135;28;20377;-73
2022/08/21 02:20:41;;;;;;;12.95;2.55;;;;;;;17.00;100.00;101572.66;5048427;28;20029;-72
2022/08/21 02:23:09;;;;;;;9.27;2.97;;;;;;;16.96;100.00;101576.19;5050067;28;20025;-73
2022/08/21 02:25:34;;;;;;;9.13;2.10;;;;;;;16.92;100.00;101580.59;5044932;28;20096;-73
2022/08/21 02:28:04;;;;;;;6.30;1.85;;;;;;;16.88;100.00;101577.91;5051540;28;20159;-73
2022/08/21 02:30:34;;;;;;;4.78;2.00;;;;;;;16.81;100.00;101579.66;5041007;28;20087;-74
2022/08/21 02:32:59;;;;;;;11.77;2.33;;;;;;;16.75;100.00;101582.31;5039622;28;20037;-73
2022/08/21 02:35:25;;;;;;;9.57;2.30;;;;;;;16.69;100.00;101583.19;5052407;28;20075;-74
2022/08/21 02:37:52;;;;;;;9.73;2.20;;;;;;;16.64;100.00;101580.50;5050176;28;20036;-73
2022/08/21 02:40:21;;;;;;;11.73;1.95;;;;;;;16.64;100.00;101577.84;5045367;28;20029;-73
2022/08/21 02:42:46;;;;;;;8.98;2.83;;;;;;;16.65;100.00;101576.94;5055357;28;20029;-73
2022/08/21 02:45:14;;;;;;;10.95;3.03;;;;;;;16.60;100.00;101577.81;5054053;28;20410;-73
2022/08/21 02:47:46;;;;;;;18.45;3.53;;;;;;;16.58;100.00;101574.28;5055934;28;20052;-74
2022/08/21 02:50:11;;;;;;;10.65;3.63;;;;;;;16.59;100.00;101568.97;5054703;28;20035;-73
2022/08/21 02:52:36;;;;;;;15.25;3.20;;;;;;;16.60;100.00;101572.50;5075351;28;20028;-73
2022/08/21 02:55:02;;;;;;;11.48;4.30;;;;;;;16.57;100.00;101570.72;5040270;28;20071;-74
2022/08/21 02:57:28;;;;;;;13.20;4.30;;;;;;;16.61;100.00;101571.63;5035879;28;20033;-74
2022/08/21 02:59:53;;;;;;;13.45;4.60;;;;;;;16.60;100.00;101568.06;5036945;28;20032;-74
2022/08/21 03:02:21;;;;;;;16.80;4.97;;;;;;;16.62;100.00;101570.75;5053230;28;20030;-74
2022/08/21 03:04:46;;;;;;;15.77;5.35;;;;;;;16.58;100.00;101564.53;5070270;28;20024;-74
2022/08/21 03:07:12;;;;;;;15.98;4.70;;;;;;;16.56;100.00;101562.75;5042014;28;20049;-74
2022/08/21 03:09:37;;;;;;;12.20;4.40;;;;;;;16.59;100.00;101561.00;5039332;28;20025;-73
2022/08/21 03:12:03;;;;;;;14.73;4.85;;;;;;;16.56;100.00;101565.41;5053462;28;20125;-73
2022/08/21 03:14:28;;;;;;;16.20;5.57;;;;;;;16.52;100.00;101557.44;5044049;28;20121;-74
2022/08/21 03:16:54;;;;;;;16.17;3.95;;;;;;;16.54;100.00;101552.13;5038469;28;20119;-74
2022/08/21 03:19:20;;;;;;;12.20;3.80;;;;;;;16.52;100.00;101553.88;5042026;28;20061;-73
2022/08/21 03:21:46;;;;;;;10.93;3.47;;;;;;;16.48;100.00;101552.09;5049798;28;20495;-73
2022/08/21 03:24:11;;;;;;;10.82;3.65;;;;;;;16.49;100.00;101548.56;5035281;28;20045;-73
2022/08/21 03:26:37;;;;;;;11.20;3.53;;;;;;;16.48;100.00;101542.38;5049342;28;20028;-73
2022/08/21 03:29:02;;;;;;;9.88;3.03;;;;;;;16.47;100.00;101553.00;5050334;28;20070;-74
2022/08/21 03:31:30;;;;;;;15.10;3.60;;;;;;;16.45;100.00;101547.66;5051445;28;20033;-74
2022/08/21 03:33:56;;;;;;;10.30;3.20;;;;;;;16.46;100.00;101544.13;5041909;28;20030;-73
2022/08/21 03:36:21;;;;;;;11.23;3.13;;;;;;;16.46;100.00;101546.78;5044433;28;20385;-74
2022/08/21 03:38:47;;;;;;;10.63;3.45;;;;;;;16.43;100.00;101543.25;5040379;28;20032;-74
2022/08/21 03:41:12;;;;;;;15.93;3.15;;;;;;;16.40;100.00;101538.81;5042950;28;20025;-74
2022/08/21 03:43:38;;;;;;;11.48;3.28;;;;;;;16.40;100.00;101538.81;5041343;28;20124;-74
2022/08/21 03:46:05;;;;;;;12.02;2.80;;;;;;;16.35;100.00;101536.13;5036490;28;20029;-74
2022/08/21 03:48:32;;;;;;;7.25;2.45;;;;;;;16.34;100.00;101541.44;5052782;28;20032;-73
2022/08/21 03:50:58;;;;;;;10.00;2.55;;;;;;;16.29;100.00;101541.41;5046723;28;20029;-73
2022/08/21 03:53:24;;;;;;;8.48;2.38;;;;;;;16.19;100.00;101539.59;5049579;28;20370;-73
2022/08/21 03:55:52;;;;;;;10.63;2.47;;;;;;;16.19;100.00;101550.22;5046567;28;20552;-74
2022/08/21 03:58:20;;;;;;;10.52;2.95;;;;;;;16.22;100.00;101539.59;5050343;28;20108;-74
2022/08/21 04:00:48;;;;;;;7.07;2.50;;;;;;;16.21;100.00;101531.63;5043283;28;20044;-74
2022/08/21 04:03:14;;;;;;;13.82;3.58;;;;;;;16.16;100.00;101537.81;5047996;28;20037;-73
2022/08/21 04:05:41;;;;;;;16.23;3.70;;;;;;;16.15;100.00;101544.00;5048239;28;20473;-73
2022/08/21 04:08:07;;;;;;;12.90;3.15;;;;;;;16.16;100.00;101536.94;5037914;28;20045;-74
2022/08/21 04:10:36;;;;;;;12.70;2.88;;;;;;;16.15;100.00;101537.81;5042152;28;20078;-74
2022/08/21 04:13:02;;;;;;;8.57;2.53;;;;;;;16.12;100.00;101541.31;5053625;28;20435;-74
2022/08/21 04:15:28;;;;;;;6.40;2.30;;;;;;;16.13;100.00;101544.91;5033169;28;20033;-74
2022/08/21 04:17:54;;;;;;;10.57;3.38;;;;;;;16.13;100.00;101540.47;5048444;28;20044;-74
2022/08/21 04:20:21;;;;;;;8.95;2.90;;;;;;;16.11;100.00;101539.53;5049659;28;20021;-74
2022/08/21 04:22:47;;;;;;;12.18;2.83;;;;;;;16.13;100.00;101548.44;5048835;28;20465;-72
2022/08/21 04:25:15;;;;;;;10.40;2.80;;;;;;;16.12;100.00;101549.28;5059154;28;20099;-73
2022/08/21 04:27:41;;;;;;;8.43;2.80;;;;;;;16.09;100.00;101549.28;5052866;28;20491;-73
2022/08/21 04:30:08;;;;;;;16.08;3.45;;;;;;;16.08;100.00;101558.13;5039936;28;20092;-72
2022/08/21 04:32:34;;;;;;;8.18;2.42;;;;;;;16.08;100.00;101552.81;5038794;28;20032;-73
2022/08/21 04:35:03;;;;;;;10.25;2.97;;;;;;;16.04;100.00;101556.34;5045668;28;20045;-74
2022/08/21 04:37:29;;;;;;;13.45;2.88;;;;;;;16.06;100.00;101559.91;5038289;28;20033;-73
2022/08/21 04:39:57;;;;;;;13.05;2.90;;;;;;;16.07;100.00;101566.97;5042929;28;20491;-73
2022/08/21 04:42:24;;;;;;;12.15;2.60;;;;;;;16.01;100.00;101562.50;5038515;28;20029;-74
2022/08/21 04:44:49;;;;;;;11.35;2.75;;;;;;;15.99;100.00;101563.38;5045058;28;20037;-75
2022/08/21 04:47:16;;;;;;;10.52;2.42;;;;;;;16.00;100.00;101565.16;5045615;28;20032;-74
2022/08/21 04:49:42;;;;;;;9.93;2.70;;;;;;;15.96;100.00;101561.59;5046831;28;20044;-74
2022/08/21 04:52:07;;;;;;;9.93;2.45;;;;;;;16.00;100.00;101568.69;5045511;28;20037;-72
2022/08/21 04:54:33;;;;;;;19.02;2.92;;;;;;;15.95;100.00;101574.84;5050669;28;20104;-73
2022/08/21 04:57:06;;;;;;;8.98;2.65;;;;;;;15.98;100.00;101577.56;5051318;28;20036;-73
2022/08/21 04:59:40;;;;;;;9.82;2.70;;;;;;;15.96;100.00;101574.00;5033237;28;20025;-74
2022/08/21 05:02:08;;;;;;;11.85;2.60;;;;;;;15.98;100.00;101574.91;5034015;28;20104;-73
2022/08/21 05:04:36;;;;;;;19.70;3.83;;;;;;;15.91;100.00;101576.63;5052468;28;20025;-73
2022/08/21 05:07:05;;;;;;;13.18;3.10;;;;;;;15.97;100.00;101575.78;5052076;28;20049;-73
2022/08/21 05:09:32;;;;;;;9.73;2.50;;;;;;;15.94;100.00;101573.97;5046520;28;20025;-73
2022/08/21 05:11:58;;;;;;;10.40;3.28;;;;;;;15.98;100.00;101574.91;5040975;28;20022;-73
2022/08/21 05:14:23;;;;;;;13.23;3.20;;;;;;;16.00;100.00;101570.47;5036043;28;20027;-72
2022/08/21 05:16:49;;;;;;;9.75;2.92;;;;;;;15.99;100.00;101572.25;5041973;28;20029;-73
2022/08/21 05:19:14;;;;;;;11.57;3.80;;;;;;;15.99;100.00;101574.00;5046387;28;20031;-74
2022/08/21 05:21:43;;;;;;;9.50;3.13;;;;;;;16.02;100.00;101574.03;5045465;28;20546;-74
2022/08/21 05:24:09;;;;;;;9.23;2.72;;;;;;;16.05;100.00;101578.44;5049968;28;20028;-74
2022/08/21 05:26:36;;;;;;;22.45;4.72;;;;;;;16.03;100.00;101567.81;5057671;28;20037;-74
2022/08/21 05:29:02;;;;;;;13.70;3.95;;;;;;;16.02;100.00;101574.03;5051906;28;21590;-74
2022/08/21 05:31:28;;;;;;;14.32;3.92;;;;;;;16.02;100.00;101576.69;5041036;28;20036;-74
2022/08/21 05:33:53;;;;;;;20.80;4.80;;;;;;;16.00;100.00;101568.69;5032555;28;20033;-74
2022/08/21 05:36:18;;;;;;;14.88;4.30;;;;;;;16.12;100.00;101577.63;5034867;28;20025;-74
2022/08/21 05:38:44;;;;;;;18.10;4.05;;;;;;;16.22;100.00;101581.22;5035315;28;20539;-72
2022/08/21 05:41:10;;;;;;;15.00;4.25;;;;;;;16.18;100.00;101575.91;5041261;28;20388;-72
2022/08/21 05:43:36;;;;;;;14.98;4.50;;;;;;;16.24;100.00;101575.03;5047612;28;20021;-73
2022/08/21 05:46:05;;;;;;;21.30;4.55;;;;;;;16.23;100.00;101575.03;5051033;28;20025;-75
2022/08/21 05:48:32;;;;;;;26.83;4.85;;;;;;;16.25;100.00;101576.81;5037359;28;20128;-75
2022/08/21 05:51:03;;;;;;;14.05;4.43;;;;;;;16.28;100.00;101575.94;5037402;28;20027;-73
2022/08/21 05:53:28;;;;;;;16.90;5.30;;;;;;;16.33;100.00;101580.38;5046050;28;20040;-73
2022/08/21 05:55:54;;;;;;;17.40;4.60;;;;;;;16.34;100.00;101578.59;5038079;28;20485;-74
2022/08/21 05:58:20;;;;;;;14.07;4.40;;;;;;;16.43;100.00;101577.78;5032924;28;20029;-74
2022/08/21 06:00:48;;;;;;;17.38;4.53;;;;;;;16.47;100.00;101574.25;5040461;28;20021;-74
2022/08/21 06:03:24;;;;;;;18.60;4.60;;;;;;;16.51;100.00;101578.69;5039866;28;20079;-74
2022/08/21 06:05:50;;;;;;;23.10;4.95;;;;;;;16.55;100.00;101580.47;5037558;28;20549;-72
2022/08/21 06:08:17;;;;;;;24.65;5.78;;;;;;;16.61;100.00;101579.59;5048429;28;20045;-74
2022/08/21 06:10:44;;;;;;;20.63;5.20;;;;;;;16.62;100.00;101576.06;5037358;28;20025;-74
2022/08/21 06:13:11;;;;;;;20.00;5.25;;;;;;;16.67;100.00;101580.50;5037854;28;20053;-72
2022/08/21 06:15:36;;;;;;;26.77;5.72;;;;;;;16.75;100.00;101584.97;5041288;28;20033;-74
2022/08/21 06:18:02;;;;;;;12.10;3.92;;;;;;;16.77;100.00;101576.09;5042280;28;20037;-73
2022/08/21 06:20:28;;;;;;;18.23;4.65;;;;;;;16.83;100.00;101576.13;5035239;28;20515;-74
2022/08/21 06:22:53;;;;;;;16.90;4.13;;;;;;;16.88;100.00;101575.25;5052550;28;20033;-74
2022/08/21 06:25:19;;;;;;;18.58;4.70;;;;;;;16.92;100.00;101579.72;5046941;28;20116;-75
2022/08/21 06:27:45;;;;;;;16.67;4.28;;;;;;;16.98;100.00;101567.34;5042271;28;20028;-74
2022/08/21 06:30:11;;;;;;;19.92;4.78;;;;;;;17.05;100.00;101567.34;5037577;28;20047;-73
2022/08/21 06:32:37;;;;;;;11.90;4.53;;;;;;;17.08;100.00;101565.56;5035149;28;20478;-74
2022/08/21 06:35:03;;;;;;;12.98;4.03;;;;;;;17.15;100.00;101567.34;5033349;28;20029;-74
2022/08/21 06:37:29;;;;;;;24.85;4.65;;;;;;;17.21;100.00;101570.91;5033514;28;20030;-73
2022/08/21 06:39:54;;;;;;;18.20;4.93;;;;;;;17.25;100.00;101573.56;5039688;28;21031;-73
2022/08/21 06:42:19;;;;;;;12.23;3.80;;;;;;;17.34;100.00;101567.38;5041958;28;20100;-72
2022/08/21 06:44:47;;;;;;;19.98;5.00;;;;;;;17.40;100.00;101578.00;5042408;28;20017;-73
2022/08/21 06:47:13;;;;;;;14.80;4.18;;;;;;;17.46;100.00;101575.34;5044187;28;20104;-73
2022/08/21 06:49:38;;;;;;;19.35;5.35;;;;;;;17.50;100.00;101577.13;5037946;28;20503;-73
2022/08/21 06:52:08;;;;;;;14.60;4.80;;;;;;;17.53;100.00;101579.75;5039009;28;20056;-74
2022/08/21 06:54:34;;;;;;;13.57;4.13;;;;;;;17.58;100.00;101576.22;5042853;28;20063;-73
2022/08/21 06:56:59;;;;;;;9.73;4.30;;;;;;;17.64;100.00;101576.22;5048754;28;20060;-74
2022/08/21 06:59:24;;;;;;;19.55;4.97;;;;;;;17.73;100.00;101570.88;5050029;28;20377;-74
2022/08/21 07:01:50;;;;;;;15.20;4.82;;;;;;;17.76;100.00;101576.19;5036698;28;20795;-72
2022/08/21 07:04:15;;;;;;;15.02;4.13;;;;;;;17.84;100.00;101577.06;5041928;28;20099;-74
2022/08/21 07:06:40;;;;;;;17.35;4.22;;;;;;;17.90;100.00;101569.97;5052920;28;20132;-73
2022/08/21 07:09:06;;;;;;;18.38;4.07;;;;;;;18.02;100.00;101575.28;5043331;28;20025;-75
2022/08/21 07:11:31;;;;;;;11.60;3.80;;;;;;;18.15;100.00;101578.78;5050125;28;20029;-74
2022/08/21 07:13:57;;;;;;;13.15;3.83;;;;;;;18.24;100.00;101580.56;5042873;28;20109;-74
2022/08/21 07:16:22;;;;;;;13.48;3.85;;;;;;;18.30;100.00;101572.53;5038816;28;20492;-74
2022/08/21 07:18:48;;;;;;;20.10;5.18;;;;;;;18.39;100.00;101572.50;5038209;28;20032;-74
2022/08/21 07:21:14;;;;;;;13.38;3.80;;;;;;;18.47;100.00;101577.78;5044788;28;20079;-74
2022/08/21 07:23:43;;;;;;;15.98;4.18;;;;;;;18.56;100.00;101584.84;5040136;28;20017;-74
2022/08/21 07:26:09;;;;;;;10.90;3.28;;;;;;;18.55;100.00;101591.97;5043489;28;20380;-73
2022/08/21 07:28:35;;;;;;;12.88;4.38;;;;;;;18.45;100.00;101588.47;5053791;28;20055;-75
2022/08/21 07:31:01;;;;;;;11.15;3.90;;;;;;;18.51;100.00;101588.44;5049534;28;20519;-74
2022/08/21 07:33:29;;;;;;;10.40;4.07;;;;;;;18.66;100.00;101586.59;5053730;28;20029;-75
2022/08/21 07:35:54;;;;;;;12.50;3.33;;;;;;;18.74;100.00;101579.44;5042941;28;20056;-74
2022/08/21 07:38:20;;;;;;;12.50;3.20;;;;;;;18.84;100.00;101586.50;5044554;28;20099;-73
2022/08/21 07:40:47;;;;;;;15.35;3.72;;;;;;;18.93;100.00;101585.56;5049116;28;20147;-74
2022/08/21 07:43:13;;;;;;;18.10;4.05;;;;;;;18.93;100.00;101590.03;5054945;28;20053;-74
2022/08/21 07:45:38;;;;;;;15.48;3.28;;;;;;;18.84;100.00;101580.25;5041833;28;20152;-74
2022/08/21 07:48:04;;;;;;;15.85;4.20;;;;;;;18.92;100.00;101589.13;5035551;28;20056;-74
2022/08/21 07:50:30;;;;;;;15.48;4.00;;;;;;;19.04;100.00;101583.75;5039774;28;20388;-74
2022/08/21 07:52:55;;;;;;;14.05;3.10;;;;;;;19.21;100.00;101586.28;5047791;28;20021;-76
2022/08/21 07:55:22;;;;;;;14.63;3.53;;;;;;;19.27;100.00;101584.47;5046721;28;20353;-74
2022/08/21 07:57:48;;;;;;;18.15;3.63;;;;;;;19.38;100.00;101579.91;5040719;28;20104;-74
2022/08/21 08:00:19;;;;;;;20.45;2.97;;;;;;;19.53;100.00;101578.91;5047256;28;20041;-74
2022/08/21 08:02:49;;;;;;;10.90;3.08;;;;;;;19.66;100.00;101580.56;5048074;28;20492;-73
2022/08/21 08:05:14;;;;;;;13.45;3.67;;;;;;;19.67;100.00;101584.13;5043184;28;20098;-73
2022/08/21 08:07:40;;;;;;;15.90;3.63;;;;;;;19.61;100.00;101582.38;5034687;28;20108;-73
2022/08/21 08:10:07;;;;;;;14.45;3.80;;;;;;;19.52;100.00;101586.03;5044379;28;20425;-74
2022/08/21 08:12:38;;;;;;;14.95;3.55;;;;;;;19.64;100.00;101590.38;5038795;28;20032;-74
2022/08/21 08:15:07;;;;;;;12.25;3.40;;;;;;;19.67;100.00;101584.13;5049988;28;20029;-75
2022/08/21 08:17:33;;;;;;;7.80;3.10;;;;;;;19.64;100.00;101581.47;5037691;28;20501;-71
2022/08/21 08:20:00;;;;;;;12.10;2.75;;;;;;;19.68;100.00;101575.19;5047062;28;20048;-75
2022/08/21 08:22:26;;;;;;;18.73;4.07;;;;;;;19.80;100.00;101576.88;5049924;28;20466;-73
2022/08/21 08:24:53;;;;;;;9.48;2.58;;;;;;;19.96;100.00;101574.97;5051423;28;20021;-73
2022/08/21 08:27:19;;;;;;;10.88;2.83;;;;;;;20.02;100.00;101567.78;5057728;28;20366;-74
2022/08/21 08:29:44;;;;;;;13.95;3.05;;;;;;;20.04;100.00;101567.75;5040532;28;20037;-74
2022/08/21 08:32:10;;;;;;;11.73;2.85;;;;;;;20.18;100.00;101575.59;5048513;28;20029;-74
2022/08/21 08:34:37;;;;;;;16.75;3.58;;;;;;;20.31;100.00;101577.22;5042999;28;20412;-74
2022/08/21 08:37:03;;;;;;;11.18;3.15;;;;;;;20.40;100.00;101570.88;5051738;28;20063;-74
2022/08/21 08:39:29;;;;;;;15.93;2.88;;;;;;;20.44;100.00;101571.72;5068113;28;20488;-74
2022/08/21 08:42:03;;;;;;;12.50;2.55;;;;;;;20.64;100.00;101564.31;5068459;28;20049;-72
2022/08/21 08:44:29;;;;;;;12.65;2.80;;;;;;;20.84;100.00;101572.09;5061404;28;20070;-72
2022/08/21 08:46:56;;;;;;;12.52;2.65;;;;;;;20.96;100.00;101560.34;5045362;28;20041;-73
2022/08/21 08:49:24;;;;;;;19.35;2.92;;;;;;;21.08;100.00;101561.03;5048910;28;20436;-74
2022/08/21 08:52:00;;;;;;;8.93;2.55;;;;;;;21.20;100.00;101553.72;5047268;28;20485;-72
2022/08/21 08:54:31;;;;;;;7.22;2.00;;;;;;;21.47;100.00;101558.63;5068652;28;20108;-73
2022/08/21 08:56:59;;;;;;;9.35;2.53;;;;;;;21.48;100.00;101560.38;5040939;28;20441;-74
2022/08/21 08:59:40;;;;;;;9.90;2.67;;;;;;;21.21;100.00;101566.16;5037016;28;20029;-73
2022/08/21 09:02:07;;;;;;;11.48;1.90;;;;;;;20.92;100.00;101568.41;5069556;28;20040;-73
2022/08/21 09:04:32;;;;;;;16.27;2.78;;;;;;;20.75;100.00;101574.91;5059487;28;20012;-74
2022/08/21 09:07:07;;;;;;;9.07;2.55;;;;;;;20.58;100.00;101574.22;5040195;28;20045;-74
2022/08/21 09:09:54;;;;;;;9.07;1.83;;;;;;;20.41;100.00;101578.00;5035412;28;20026;-74
2022/08/21 09:12:46;;;;;;;6.40;1.90;;;;;;;20.20;100.00;101579.16;5034392;28;20033;-73
2022/08/21 09:15:29;;;;;;;9.82;2.05;;;;;;;20.18;100.00;101576.50;5040511;28;20064;-74
2022/08/21 09:18:28;;;;;;;7.60;1.50;;;;;;;20.13;100.00;101573.00;5067657;28;20037;-73
2022/08/21 09:21:15;;;;;;;8.10;2.33;;;;;;;20.12;100.00;101581.91;5052348;28;20580;-73
2022/08/21 09:23:52;;;;;;;11.52;1.92;;;;;;;20.11;100.00;101574.78;5048910;28;20051;-74
2022/08/21 09:26:21;;;;;;;5.28;1.30;;;;;;;20.24;100.00;101579.97;5053955;28;20553;-73
2022/08/21 09:28:52;;;;;;;11.23;1.75;;;;;;;20.31;100.00;101581.69;5037102;28;20029;-73
2022/08/21 09:31:26;;;;;;;6.00;1.50;;;;;;;20.39;100.00;101574.47;5037628;28;20424;-73
2022/08/21 09:34:04;;;;;;;7.75;1.50;;;;;;;20.41;100.00;101578.00;5039536;28;20065;-72
2022/08/21 09:36:42;;;;;;;6.70;1.60;;;;;;;20.45;100.00;101584.19;5066679;28;20036;-73
2022/08/21 09:39:10;;;;;;;10.68;1.98;;;;;;;20.41;100.00;101571.78;5051705;28;20469;-72
2022/08/21 09:41:37;;;;;;;13.43;1.60;;;;;;;20.44;100.00;101585.09;5036990;28;20385;-73
2022/08/21 09:44:05;;;;;;;5.70;1.40;;;;;;;20.49;100.00;101585.94;5059223;28;20106;-73
2022/08/21 09:46:32;;;;;;;9.68;1.60;;;;;;;20.62;100.00;101582.19;5054631;28;20052;-74
2022/08/21 09:48:59;;;;;;;7.85;1.77;;;;;;;20.88;100.00;101576.50;5042158;28;20033;-73
2022/08/21 09:51:35;;;;;;;7.53;2.05;;;;;;;21.20;100.00;101582.25;5036075;28;20421;-74
2022/08/21 09:54:16;;;;;;;6.28;1.38;;;;;;;21.54;100.00;101579.94;5041013;28;20032;-73
2022/08/21 09:59:45;;;;;;;9.10;1.70;;;;;;;21.70;100.00;101577.88;5056157;28;20049;-75
2022/08/21 10:02:30;;;;;;;9.20;1.92;;;;;;;21.60;100.00;101575.41;5046660;28;20024;-75
2022/08/21 10:05:00;;;;;;;12.40;1.65;;;;;;;21.39;100.00;101577.47;5054876;28;20357;-74
2022/08/21 10:07:28;;;;;;;10.07;1.70;;;;;;;21.19;100.00;101573.34;5065086;28;20404;-75
2022/08/21 10:10:29;;;;;;;7.30;2.20;;;;;;;21.16;100.00;101576.09;5050951;28;20029;-75
2022/08/21 10:13:10;;;;;;;11.18;1.60;;;;;;;21.09;100.00;101577.06;5058158;28;20396;-73
2022/08/21 10:15:53;;;;;;;6.75;1.55;;;;;;;21.15;100.00;101577.00;5050902;28;20389;-72
2022/08/21 10:18:38;;;;;;;7.55;1.92;;;;;;;21.30;100.00;101580.34;5041680;28;20032;-74
2022/08/21 10:21:15;;;;;;;4.43;1.50;;;;;;;21.64;100.00;101582.47;5055094;28;20153;-76
2022/08/21 10:24:05;;;;;;;5.90;1.67;;;;;;;22.06;100.00;101578.09;5054194;28;20403;-75
2022/08/21 10:26:56;;;;;;;7.43;1.50;;;;;;;22.55;100.00;101586.06;5052206;28;20033;-75
2022/08/21 10:29:50;;;;;;;10.98;1.80;;;;;;;22.81;100.00;101585.47;5041278;28;20107;-75
2022/08/21 10:32:33;;;;;;;6.78;1.75;;;;;;;22.96;100.00;101580.69;5039369;28;20021;-75
2022/08/21 10:35:07;;;;;;;;;;;;;;;22.88;100.00;101578.19;5047916;28;20132;-77
2022/08/21 10:37:35;;;;;;;10.27;2.10;;;;;;;22.96;100.00;101569.97;5038795;28;19928;-74
2022/08/21 10:40:21;;;;;;;6.75;1.70;;;;;;;22.75;100.00;101582.97;5036660;28;20382;-75
2022/08/21 10:43:03;;;;;;;4.88;1.48;;;;;;;22.51;100.00;101587.06;5050611;28;20381;-76
2022/08/21 10:45:53;;;;;;;8.27;1.75;;;;;;;22.13;100.00;101578.84;5051188;28;20528;-75
2022/08/21 10:48:34;;;;;;;5.85;1.70;;;;;;;21.94;100.00;101582.81;5044825;28;20032;-76
2022/08/21 10:51:10;;;;;;;6.40;1.80;;;;;;;21.89;100.00;101581.09;5051829;28;20083;-74
2022/08/21 10:53:47;;;;;;;7.82;1.95;;;;;;;22.14;100.00;101583.31;5051247;28;20025;-76
2022/08/21 10:56:28;;;;;;;6.97;1.90;;;;;;;22.42;100.00;101571.16;5058855;28;20017;-75
2022/08/21 10:59:12;;;;;;;10.50;2.03;;;;;;;22.64;100.00;101579.63;5043472;28;20087;-75
2022/08/21 11:02:20;;;;;;;4.63;1.58;;;;;;;23.03;100.00;101576.94;5050301;28;20026;-76
2022/08/21 11:04:56;;;;;;;6.78;1.70;;;;;;;23.22;100.00;101575.63;5052543;28;20575;-74
2022/08/21 11:07:33;;;;;;;5.63;1.90;;;;;;;23.41;100.00;101583.19;5064066;28;20129;-75
2022/08/21 11:10:05;;;;;;;6.32;1.83;;;;;;;23.64;100.00;101584.41;5048897;28;20388;-77
2022/08/21 11:12:48;;;;;;;6.97;1.80;;;;;;;23.83;100.00;101590.19;5050537;28;20036;-75
2022/08/21 11:15:43;;;;;;;5.97;1.58;;;;;;;23.78;100.00;101587.63;5052920;28;20024;-75
2022/08/21 11:18:18;;;;;;;7.22;2.00;;;;;;;24.04;100.00;101584.25;5056791;28;20039;-71
2022/08/21 11:20:51;;;;;;;5.97;1.80;;;;;;;23.69;99.27;101591.44;5049072;28;20025;-75
2022/08/21 11:23:19;;;;;;;;;;;;;;;23.53;100.00;101592.75;5045034;28;20047;-75